Sao Goncalo do Para, Brazil
Current Conditions -  °F | °C
As of 3:00 PM on Friday 24 Oct 2014 (Local Time) from SBBH Reporting Station
Scattered Clouds Scattered Clouds  
Wind Chill: 88°   Ceiling: Unl
Heat Index: 88°   Visibility: 6mi
Dew Point: 48°   Wind: 6mph
Humidity: 25%   Direction: 210°SSW
Pressure: 30"   Gusts: NA
Location:  19.98°S, 44.86°W
Report Text: SBBH 241700Z 21005KT 9999 SCT030 31/09 Q1016
Loading
Personal Weather Stations






























Interactive Weather Map
Tropical Storm Tracking
New forecast layout! Learn more

10-Day Weather Forecast

Advertisements
Track Severe Weather on mobile